Flight Track Log - Related Links

Times and Time Zones

All times are in EDT time to prevent confusion due to time zone crossing. See the EJM826 flight status page for this flight to view local times or setup timezone preferences in your user account.

Time Position Orientation Groundspeed Altitude Reporting Facility
EDT Latitude Longitude Course Direction KTS MPH feet Rate Location/Type
Thu 08:27:31 AM 29.6386 -95.2550 18° North 173 199 700  Level Houston Center
Thu 08:28:39 AM 29.6956 -95.2578 358° North 214 246 3,000 1,960 Climbing Houston Center
Thu 08:29:12 AM 29.7256 -95.2717 338° Northwest 210 242 4,000 1,723 Climbing Houston Center
Thu 08:30:13 AM 29.7897 -95.3081 334° Northwest 250 288 5,700 1,902 Climbing Houston Center
Thu 08:31:15 AM 29.8631 -95.3369 341° North 282 325 7,900 2,032 Climbing Houston Center
Thu 08:32:17 AM 29.9381 -95.3183 12° North 272 313 9,900 1,854 Climbing Houston Center
Thu 08:33:00 AM 30.3202 -95.1903 18° North  Level FlightAware Approximate
Thu 08:33:18 AM 30.0203 -95.2928 15° North 301 346 11,700  Level Houston Center
Thu 08:34:20 AM 30.1167 -95.2450 23° Northeast 314 361 14,200 2,244 Climbing Houston Center
Thu 08:35:21 AM 30.1956 -95.2075 22° Northeast 308 354 16,300 1,707 Climbing Houston Center
Thu 08:36:23 AM 30.2744 -95.1678 24° Northeast 309 356 17,700 1,296 Climbing Houston Center
Thu 08:37:26 AM 30.3569 -95.1275 23° Northeast 319 367 19,000 1,415 Climbing Houston Center
Thu 08:38:26 AM 30.4400 -95.0669 32° Northeast 328 377 20,600 1,279 Climbing Houston Center
Thu 08:39:28 AM 30.5133 -95.0022 37° Northeast 330 380 21,600 1,122 Climbing Houston Center
Thu 08:40:29 AM 30.5881 -94.9358 37° Northeast 337 388 22,900 1,073 Climbing Houston Center
Thu 08:41:31 AM 30.6647 -94.8681 37° Northeast 345 397 23,800 968 Climbing Houston Center
Thu 08:42:33 AM 30.7431 -94.7981 38° Northeast 355 409 24,900 1,024 Climbing Houston Center
Thu 08:43:34 AM 30.8228 -94.7269 37° Northeast 362 417 25,900 1,122 Climbing Houston Center
Thu 08:44:36 AM 30.9186 -94.6411 38° Northeast 364 419 27,200 1,016 Climbing Houston Center
Thu 08:45:38 AM 31.0011 -94.5683 37° Northeast 375 432 28,000 732 Climbing Houston Center
Thu 08:46:39 AM 31.0833 -94.4936 38° Northeast 378 435 28,700 780 Climbing Houston Center
Thu 08:47:41 AM 31.1689 -94.4178 37° Northeast 389 448 29,600 823 Climbing Houston Center
Thu 08:48:43 AM 31.2553 -94.3414 37° Northeast 394 453 30,400 919 Climbing Houston Center
Thu 08:49:45 AM 31.3597 -94.2486 37° Northeast 394 453 31,500 976 Climbing Houston Center
Thu 08:50:46 AM 31.4475 -94.1714 37° Northeast 395 455 32,400 878 Climbing Houston Center
Thu 08:51:48 AM 31.5358 -94.0922 37° Northeast 398 458 33,300 871 Climbing Houston Center
Thu 08:52:50 AM 31.6231 -94.0142 37° Northeast 397 457 34,200 1,065 Climbing Houston Center
Thu 08:53:52 AM 31.7103 -93.9350 38° Northeast 396 456 35,500 1,073 Climbing Houston Center
Thu 08:54:53 AM 31.7969 -93.8592 37° Northeast 391 450 36,400 1,073 Climbing Houston Center
Thu 08:55:55 AM 31.8936 -93.7700 38° Northeast 385 443 37,700 1,065 Climbing Houston Center
Thu 08:56:57 AM 31.9786 -93.6947 37° Northeast 382 440 38,600 919 Climbing Houston Center
Thu 08:57:59 AM 32.0656 -93.6133 38° Northeast 381 438 39,600 1,016 Climbing Houston Center
Thu 08:59:01 AM 32.1442 -93.5417 38° Northeast 376 433 40,700 894 Climbing Houston Center
Thu 08:59:33 AM 32.1858 -93.4933 44° Northeast 383 441 41,000 196 Climbing Fort Worth Center
Thu 09:00:33 AM 32.2714 -93.4233 35° Northeast 383 441 41,000  Level Fort Worth Center
Thu 09:01:33 AM 32.3606 -93.3408 38° Northeast 389 448 41,000  Level Fort Worth Center
Thu 09:02:33 AM 32.4475 -93.2581 39° Northeast 396 456 41,000  Level Fort Worth Center
Thu 09:03:33 AM 32.5406 -93.1725 38° Northeast 406 467 41,000  Level Fort Worth Center
Thu 09:04:33 AM 32.6358 -93.0867 37° Northeast 411 473 41,000  Level Fort Worth Center
Thu 09:05:33 AM 32.7289 -93.0031 37° Northeast 416 479 41,000  Level Fort Worth Center
Thu 09:06:33 AM 32.8197 -92.9169 39° Northeast 421 484 41,000  Level Fort Worth Center
Thu 09:07:33 AM 32.9128 -92.8283 39° Northeast 421 484 41,000  Level Fort Worth Center
Thu 09:09:08 AM 33.0592 -92.6972 37° Northeast 426 490 41,000  Level Memphis Center
Thu 09:10:08 AM 33.1506 -92.6078 39° Northeast 421 484 41,000  Level Memphis Center
Thu 09:11:09 AM 33.2439 -92.5256 36° Northeast 416 479 41,000  Level Memphis Center
Thu 09:12:09 AM 33.3394 -92.4361 38° Northeast 421 484 41,000  Level Memphis Center
Thu 09:13:09 AM 33.4283 -92.3511 39° Northeast 421 484 41,000  Level Memphis Center
Thu 09:14:09 AM 33.5197 -92.2633 39° Northeast 416 479 41,000  Level Memphis Center
Thu 09:15:08 AM 33.6128 -92.1756 38° Northeast 422 486 41,000  Level Memphis Center
Thu 09:16:09 AM 33.7036 -92.0900 38° Northeast 422 486 41,000  Level Memphis Center
Thu 09:17:09 AM 33.7947 -91.9994 40° Northeast 422 486 41,000  Level Memphis Center
Thu 09:18:09 AM 33.8939 -91.9136 36° Northeast 422 486 41,000  Level Memphis Center
Thu 09:19:09 AM 33.9806 -91.8225 41° Northeast 427 491 41,000  Level Memphis Center
Thu 09:20:09 AM 34.0733 -91.7364 38° Northeast 427 491 41,000  Level Memphis Center
Thu 09:21:09 AM 34.1725 -91.6375 40° Northeast 422 486 41,000  Level Memphis Center
Thu 09:22:09 AM 34.2547 -91.5558 39° Northeast 422 486 41,000  Level Memphis Center
Thu 09:23:09 AM 34.3514 -91.4692 36° Northeast 432 497 41,000  Level Memphis Center
Thu 09:24:09 AM 34.4442 -91.3747 40° Northeast 432 497 41,000  Level Memphis Center
Thu 09:25:09 AM 34.5386 -91.2800 40° Northeast 432 497 41,000  Level Memphis Center
Thu 09:26:09 AM 34.6333 -91.1925 37° Northeast 427 491 41,000  Level Memphis Center
Thu 09:27:09 AM 34.7361 -91.0900 39° Northeast 427 491 41,000  Level Memphis Center
Thu 09:28:09 AM 34.8306 -90.9972 39° Northeast 427 491 41,000  Level Memphis Center
Thu 09:29:09 AM 34.9269 -90.9017 39° Northeast 427 491 41,000  Level Memphis Center
Thu 09:30:08 AM 35.0211 -90.8111 38° Northeast 432 497 41,000  Level Memphis Center
Thu 09:31:09 AM 35.1153 -90.7150 40° Northeast 437 503 41,000  Level Memphis Center
Thu 09:32:09 AM 35.2117 -90.6214 38° Northeast 437 503 41,000  Level Memphis Center
Thu 09:33:09 AM 35.3056 -90.5275 39° Northeast 431 496 41,000  Level Memphis Center
Thu 09:34:09 AM 35.3892 -90.4411 40° Northeast 431 496 41,000  Level Memphis Center
Thu 09:35:09 AM 35.4850 -90.3494 38° Northeast 431 496 41,000  Level Memphis Center
Thu 09:36:08 AM 35.5789 -90.2497 41° Northeast 431 496 41,000  Level Memphis Center
Thu 09:37:09 AM 35.6725 -90.1550 39° Northeast 431 496 41,000  Level Memphis Center
Thu 09:38:09 AM 35.7578 -90.0603 42° Northeast 418 481 41,000  Level Memphis Center
Thu 09:39:09 AM 35.8514 -89.9678 39° Northeast 418 481 41,000  Level Memphis Center
Thu 09:40:09 AM 35.9428 -89.8725 40° Northeast 423 487 41,000  Level Memphis Center
Thu 09:41:09 AM 36.0342 -89.7794 39° Northeast 428 493 41,000  Level Memphis Center
Thu 09:42:09 AM 36.1233 -89.6864 40° Northeast 428 493 41,000  Level Memphis Center
Thu 09:43:09 AM 36.2147 -89.5956 39° Northeast 428 493 41,000  Level Memphis Center
Thu 09:44:09 AM 36.3058 -89.5044 39° Northeast 428 493 41,000  Level Memphis Center
Thu 09:45:09 AM 36.4153 -89.3872 41° Northeast 447 514 41,000  Level Memphis Center
Thu 09:46:09 AM 36.5106 -89.2933 38° Northeast 441 507 41,000  Level Memphis Center
Thu 09:47:09 AM 36.5992 -89.1964 41° Northeast 441 507 41,000  Level Memphis Center
Thu 09:48:09 AM 36.6900 -89.0994 41° Northeast 428 493 41,000  Level Memphis Center
Thu 09:49:09 AM 36.7806 -89.0047 40° Northeast 428 493 41,000  Level Memphis Center
Thu 09:50:09 AM 36.8714 -88.9072 41° Northeast 428 493 41,000  Level Memphis Center
Thu 09:51:09 AM 36.9658 -88.8094 40° Northeast 428 493 41,000  Level Memphis Center
Thu 09:52:09 AM 37.0461 -88.7222 41° Northeast 428 493 41,000  Level Memphis Center
Thu 09:53:09 AM 37.1386 -88.6264 40° Northeast 428 493 41,000  Level Memphis Center
Thu 09:55:20 AM 37.3436 -88.4003 41° Northeast 438 504 41,000  Level Indianapolis Center
Thu 09:56:22 AM 37.4375 -88.2997 40° Northeast 438 504 41,000  Level Indianapolis Center
Thu 09:57:24 AM 37.5308 -88.1992 40° Northeast 437 503 41,000  Level Indianapolis Center
Thu 09:58:26 AM 37.6161 -88.0839 47° Northeast 447 514 41,000  Level Indianapolis Center
Thu 09:59:28 AM 37.6803 -87.9389 61° Northeast 467 537 41,000  Level Indianapolis Center
Thu 10:00:31 AM 37.7531 -87.7717 61° Northeast 462 532 41,000 -432 Level Indianapolis Center
Thu 10:01:33 AM 37.8106 -87.6389 61° Northeast 463 533 40,100 -968 Descending Indianapolis Center
Thu 10:02:35 AM 37.8733 -87.4922 61° Northeast 472 543 39,000 -532 Descending Indianapolis Center
Thu 10:03:37 AM 37.9356 -87.3475 61° Northeast 468 539 39,000  Level Indianapolis Center
Thu 10:04:39 AM 38.0106 -87.1722 61° Northeast 472 543 39,000  Level Indianapolis Center
Thu 10:05:41 AM 38.0714 -87.0258 62° Northeast 474 545 39,000  Level Indianapolis Center
Thu 10:06:43 AM 38.1319 -86.8811 62° Northeast 472 543 39,000 -145 Level Indianapolis Center
Thu 10:07:45 AM 38.1931 -86.7361 62° Northeast 470 541 38,700 -726 Descending Indianapolis Center
Thu 10:08:47 AM 38.2564 -86.5856 62° Northeast 483 556 37,500 -1,306 Descending Indianapolis Center
Thu 10:09:49 AM 38.3331 -86.4014 62° Northeast 489 563 36,000 -1,306 Descending Indianapolis Center
Thu 10:10:51 AM 38.3947 -86.2528 62° Northeast 477 549 34,800 -968 Descending Indianapolis Center
Thu 10:11:53 AM 38.4558 -86.1053 62° Northeast 471 542 34,000 -387 Descending Indianapolis Center
Thu 10:12:55 AM 38.5167 -85.9569 62° Northeast 471 542 34,000 -435 Level Indianapolis Center
Thu 10:13:57 AM 38.5789 -85.8075 62° Northeast 473 544 33,100 -1,113 Descending Indianapolis Center
Thu 10:14:59 AM 38.6411 -85.6492 63° Northeast 487 560 31,700 -1,355 Descending Indianapolis Center
Thu 10:16:01 AM 38.7022 -85.4964 63° Northeast 487 560 30,300 -1,403 Descending Indianapolis Center
Thu 10:17:03 AM 38.7756 -85.3164 62° Northeast 479 551 28,800 -1,355 Descending Indianapolis Center
Thu 10:18:05 AM 38.8336 -85.1683 63° Northeast 473 544 27,500 -1,258 Descending Indianapolis Center
Thu 10:19:07 AM 38.8936 -85.0181 63° Northeast 473 544 26,200 -1,258 Descending Indianapolis Center
Thu 10:20:09 AM 38.9536 -84.8675 63° Northeast 478 550 24,900 -1,056 Descending Indianapolis Center
Thu 10:21:12 AM 39.0128 -84.7167 63° Northeast 476 548 24,000 -576 Descending Indianapolis Center
Thu 10:22:14 AM 39.0981 -84.5572 55° Northeast 455 524 23,700 -968 Descending Indianapolis Center
Thu 10:23:16 AM 39.1669 -84.4306 55° Northeast 455 524 22,000 -1,694 Descending Indianapolis Center
Thu 10:24:18 AM 39.2472 -84.2850 55° Northeast 472 543 20,200 -1,452 Descending Indianapolis Center
Thu 10:25:20 AM 39.3242 -84.1219 59° Northeast 476 548 19,000 -1,210 Descending Indianapolis Center
Thu 10:26:22 AM 39.3797 -83.9767 64° Northeast 455 524 17,700 -1,548 Descending Indianapolis Center
Thu 10:27:24 AM 39.4389 -83.8228 63° Northeast 458 527 15,800 -1,790 Descending Indianapolis Center
Thu 10:28:26 AM 39.4947 -83.6764 64° Northeast 453 521 14,000 -1,742 Descending Indianapolis Center
Thu 10:29:28 AM 39.5503 -83.5322 63° Northeast 448 516 12,200 -1,452 Descending Indianapolis Center
Thu 10:30:30 AM 39.6053 -83.4000 62° Northeast 412 474 11,000 -629 Descending Indianapolis Center
Thu 10:31:32 AM 39.6658 -83.2975 52° Northeast 363 418 10,900 -559 Descending Indianapolis Center
Thu 10:32:28 AM 39.7236 -83.1839 57° Northeast 367 422 9,900 -491 Descending Indianapolis Center
Thu 10:33:22 AM 39.7711 -83.0856 58° Northeast 354 407 10,000 -783 Climbing Indianapolis Center
Thu 10:34:23 AM 39.8158 -82.9919 58° Northeast 296 341 8,400 -1,770 Descending Indianapolis Center
Thu 10:35:24 AM 39.8619 -82.9039 56° Northeast 291 335 6,400 -1,377 Descending Indianapolis Center
Thu 10:36:25 AM 39.8872 -82.8125 70° East 242 278 5,600 -984 Descending Indianapolis Center
Thu 10:37:32 AM 39.8875 -82.7225 90° East 231 266 4,300 -787 Descending Indianapolis Center
Thu 10:38:27 AM 39.9117 -82.6636 62° Northeast 213 245 4,000 -131 Descending Indianapolis Center
Thu 10:39:49 AM 39.9981 -82.6700 357° North 230 265 4,000 -709 Level Indianapolis Center
Thu 10:40:34 AM 39.9864 -82.7653 261° West 205 236 2,500 -1,358 Descending Indianapolis Center
Thu 10:41:35 AM 39.9889 -82.8258 273° West 150 173 1,600 -885 Descending Indianapolis Center
Thu 10:43:00 AM 39.9833 -82.8833 270° West  Level FlightAware Approximate
Thu 10:50:00 AM 39.9980 -82.8920 270° West  Level Estimated

Login

Don't have an account? Register now (free) for customized features, flight alerts, and more!